sensor_id;sensor_type;location;lat;lon;timestamp;P1;durP1;ratioP1;P2;durP2;ratioP2
16832;SDS011;8533;48.426;10.868;2023-09-12T00:00:18;15.73;;;10.87;;
16832;SDS011;8533;48.426;10.868;2023-09-12T00:02:44;16.40;;;10.83;;
16832;SDS011;8533;48.426;10.868;2023-09-12T00:05:09;20.13;;;11.90;;
16832;SDS011;8533;48.426;10.868;2023-09-12T00:07:35;18.67;;;11.13;;
16832;SDS011;8533;48.426;10.868;2023-09-12T00:10:01;16.73;;;10.87;;
16832;SDS011;8533;48.426;10.868;2023-09-12T00:12:27;16.00;;;10.83;;
16832;SDS011;8533;48.426;10.868;2023-09-12T00:14:52;18.87;;;11.00;;
16832;SDS011;8533;48.426;10.868;2023-09-12T00:17:18;17.23;;;11.53;;
16832;SDS011;8533;48.426;10.868;2023-09-12T00:19:43;21.13;;;11.10;;
16832;SDS011;8533;48.426;10.868;2023-09-12T00:22:09;13.97;;;10.80;;
16832;SDS011;8533;48.426;10.868;2023-09-12T00:24:34;14.83;;;10.43;;
16832;SDS011;8533;48.426;10.868;2023-09-12T00:26:59;20.00;;;11.33;;
16832;SDS011;8533;48.426;10.868;2023-09-12T00:29:25;17.27;;;11.73;;
16832;SDS011;8533;48.426;10.868;2023-09-12T00:31:50;18.77;;;11.30;;
16832;SDS011;8533;48.426;10.868;2023-09-12T00:34:16;15.83;;;10.93;;
16832;SDS011;8533;48.426;10.868;2023-09-12T00:36:42;18.80;;;11.17;;
16832;SDS011;8533;48.426;10.868;2023-09-12T00:39:07;15.83;;;10.73;;
16832;SDS011;8533;48.426;10.868;2023-09-12T00:41:32;15.43;;;10.47;;
16832;SDS011;8533;48.426;10.868;2023-09-12T00:43:57;16.77;;;10.73;;
16832;SDS011;8533;48.426;10.868;2023-09-12T00:46:23;14.27;;;10.23;;
16832;SDS011;8533;48.426;10.868;2023-09-12T00:48:49;15.77;;;10.70;;
16832;SDS011;8533;48.426;10.868;2023-09-12T00:51:16;20.60;;;11.57;;
16832;SDS011;8533;48.426;10.868;2023-09-12T00:53:45;17.60;;;11.57;;
16832;SDS011;8533;48.426;10.868;2023-09-12T00:56:11;21.33;;;12.27;;
16832;SDS011;8533;48.426;10.868;2023-09-12T00:58:36;17.53;;;11.57;;
16832;SDS011;8533;48.426;10.868;2023-09-12T01:01:02;16.80;;;11.37;;
16832;SDS011;8533;48.426;10.868;2023-09-12T01:03:27;18.90;;;12.30;;
16832;SDS011;8533;48.426;10.868;2023-09-12T01:05:53;23.10;;;11.73;;
16832;SDS011;8533;48.426;10.868;2023-09-12T01:08:19;18.63;;;11.60;;
16832;SDS011;8533;48.426;10.868;2023-09-12T01:10:45;17.90;;;11.57;;
16832;SDS011;8533;48.426;10.868;2023-09-12T01:13:14;17.97;;;11.97;;
16832;SDS011;8533;48.426;10.868;2023-09-12T01:15:40;20.63;;;12.60;;
16832;SDS011;8533;48.426;10.868;2023-09-12T01:18:06;19.10;;;11.93;;
16832;SDS011;8533;48.426;10.868;2023-09-12T01:20:32;17.20;;;12.20;;
16832;SDS011;8533;48.426;10.868;2023-09-12T01:28:28;17.97;;;12.43;;
16832;SDS011;8533;48.426;10.868;2023-09-12T01:30:56;17.17;;;12.03;;
16832;SDS011;8533;48.426;10.868;2023-09-12T01:33:23;17.57;;;11.73;;
16832;SDS011;8533;48.426;10.868;2023-09-12T01:35:48;16.87;;;11.43;;
16832;SDS011;8533;48.426;10.868;2023-09-12T01:38:14;16.90;;;11.47;;
16832;SDS011;8533;48.426;10.868;2023-09-12T01:40:47;17.97;;;11.53;;
16832;SDS011;8533;48.426;10.868;2023-09-12T01:43:15;17.43;;;11.87;;
16832;SDS011;8533;48.426;10.868;2023-09-12T01:45:43;20.33;;;12.20;;
16832;SDS011;8533;48.426;10.868;2023-09-12T01:48:10;18.60;;;11.90;;
16832;SDS011;8533;48.426;10.868;2023-09-12T01:50:36;19.47;;;12.00;;
16832;SDS011;8533;48.426;10.868;2023-09-12T01:53:03;19.20;;;11.97;;
16832;SDS011;8533;48.426;10.868;2023-09-12T01:55:29;18.10;;;11.93;;
16832;SDS011;8533;48.426;10.868;2023-09-12T01:57:54;15.67;;;11.10;;
16832;SDS011;8533;48.426;10.868;2023-09-12T02:00:21;19.40;;;11.60;;
16832;SDS011;8533;48.426;10.868;2023-09-12T02:02:47;18.20;;;11.43;;
16832;SDS011;8533;48.426;10.868;2023-09-12T02:05:16;19.30;;;12.73;;
16832;SDS011;8533;48.426;10.868;2023-09-12T02:07:44;18.00;;;11.53;;
16832;SDS011;8533;48.426;10.868;2023-09-12T02:10:10;16.37;;;11.27;;
16832;SDS011;8533;48.426;10.868;2023-09-12T02:12:35;18.67;;;11.60;;
16832;SDS011;8533;48.426;10.868;2023-09-12T02:15:01;23.20;;;11.93;;
16832;SDS011;8533;48.426;10.868;2023-09-12T02:17:27;15.93;;;11.07;;
16832;SDS011;8533;48.426;10.868;2023-09-12T02:19:52;18.53;;;12.10;;
16832;SDS011;8533;48.426;10.868;2023-09-12T02:22:18;15.33;;;10.73;;
16832;SDS011;8533;48.426;10.868;2023-09-12T02:24:43;18.17;;;11.53;;
16832;SDS011;8533;48.426;10.868;2023-09-12T02:27:08;18.37;;;10.93;;
16832;SDS011;8533;48.426;10.868;2023-09-12T02:29:33;17.50;;;11.50;;
16832;SDS011;8533;48.426;10.868;2023-09-12T02:31:59;16.63;;;11.50;;
16832;SDS011;8533;48.426;10.868;2023-09-12T02:34:24;17.37;;;11.60;;
16832;SDS011;8533;48.426;10.868;2023-09-12T02:36:50;21.20;;;11.93;;
16832;SDS011;8533;48.426;10.868;2023-09-12T02:39:15;18.33;;;11.60;;
16832;SDS011;8533;48.426;10.868;2023-09-12T02:41:40;18.13;;;11.53;;
16832;SDS011;8533;48.426;10.868;2023-09-12T02:44:06;21.07;;;11.73;;
16832;SDS011;8533;48.426;10.868;2023-09-12T02:46:31;17.27;;;11.50;;
16832;SDS011;8533;48.426;10.868;2023-09-12T02:48:57;20.83;;;12.50;;
16832;SDS011;8533;48.426;10.868;2023-09-12T02:51:22;16.40;;;11.40;;
16832;SDS011;8533;48.426;10.868;2023-09-12T02:53:49;18.77;;;12.07;;
16832;SDS011;8533;48.426;10.868;2023-09-12T02:56:14;17.50;;;11.77;;
16832;SDS011;8533;48.426;10.868;2023-09-12T02:58:40;20.57;;;13.07;;
16832;SDS011;8533;48.426;10.868;2023-09-12T03:01:05;16.73;;;11.67;;
16832;SDS011;8533;48.426;10.868;2023-09-12T03:03:31;18.57;;;12.07;;
16832;SDS011;8533;48.426;10.868;2023-09-12T03:05:59;22.77;;;12.00;;
16832;SDS011;8533;48.426;10.868;2023-09-12T03:08:24;20.07;;;12.50;;
16832;SDS011;8533;48.426;10.868;2023-09-12T03:10:56;23.13;;;12.23;;
16832;SDS011;8533;48.426;10.868;2023-09-12T03:13:23;21.40;;;11.93;;
16832;SDS011;8533;48.426;10.868;2023-09-12T03:15:50;20.10;;;11.43;;
16832;SDS011;8533;48.426;10.868;2023-09-12T03:18:15;21.67;;;12.13;;
16832;SDS011;8533;48.426;10.868;2023-09-12T03:20:41;19.20;;;11.87;;
16832;SDS011;8533;48.426;10.868;2023-09-12T03:23:06;18.43;;;11.63;;
16832;SDS011;8533;48.426;10.868;2023-09-12T03:25:35;18.87;;;11.77;;
16832;SDS011;8533;48.426;10.868;2023-09-12T03:28:04;19.23;;;11.97;;
16832;SDS011;8533;48.426;10.868;2023-09-12T03:30:32;24.83;;;12.87;;
16832;SDS011;8533;48.426;10.868;2023-09-12T03:32:58;21.73;;;12.03;;
16832;SDS011;8533;48.426;10.868;2023-09-12T03:35:23;18.60;;;11.43;;
16832;SDS011;8533;48.426;10.868;2023-09-12T03:37:48;20.73;;;11.53;;
16832;SDS011;8533;48.426;10.868;2023-09-12T03:40:14;18.20;;;12.27;;
16832;SDS011;8533;48.426;10.868;2023-09-12T03:42:39;20.20;;;11.67;;
16832;SDS011;8533;48.426;10.868;2023-09-12T03:45:04;20.13;;;12.70;;
16832;SDS011;8533;48.426;10.868;2023-09-12T03:47:30;19.83;;;12.57;;
16832;SDS011;8533;48.426;10.868;2023-09-12T03:49:55;21.73;;;13.03;;
16832;SDS011;8533;48.426;10.868;2023-09-12T03:52:21;21.83;;;13.03;;
16832;SDS011;8533;48.426;10.868;2023-09-12T03:54:46;19.20;;;13.07;;
16832;SDS011;8533;48.426;10.868;2023-09-12T03:57:11;22.47;;;12.53;;
16832;SDS011;8533;48.426;10.868;2023-09-12T03:59:37;19.90;;;12.80;;
16832;SDS011;8533;48.426;10.868;2023-09-12T04:02:03;25.17;;;13.17;;
16832;SDS011;8533;48.426;10.868;2023-09-12T04:04:28;22.17;;;13.20;;
16832;SDS011;8533;48.426;10.868;2023-09-12T04:06:54;22.23;;;12.83;;
16832;SDS011;8533;48.426;10.868;2023-09-12T04:09:20;19.70;;;12.43;;
16832;SDS011;8533;48.426;10.868;2023-09-12T04:11:45;19.63;;;12.10;;
16832;SDS011;8533;48.426;10.868;2023-09-12T04:14:11;20.03;;;12.57;;
16832;SDS011;8533;48.426;10.868;2023-09-12T04:16:36;18.50;;;11.30;;
16832;SDS011;8533;48.426;10.868;2023-09-12T04:19:01;20.27;;;12.20;;
16832;SDS011;8533;48.426;10.868;2023-09-12T04:21:28;22.80;;;11.83;;
16832;SDS011;8533;48.426;10.868;2023-09-12T04:23:53;18.13;;;11.33;;
16832;SDS011;8533;48.426;10.868;2023-09-12T04:26:18;19.60;;;11.80;;
16832;SDS011;8533;48.426;10.868;2023-09-12T04:28:46;19.10;;;11.90;;
16832;SDS011;8533;48.426;10.868;2023-09-12T04:31:12;17.23;;;11.67;;
16832;SDS011;8533;48.426;10.868;2023-09-12T04:33:37;20.33;;;11.50;;
16832;SDS011;8533;48.426;10.868;2023-09-12T04:36:03;19.17;;;11.77;;
16832;SDS011;8533;48.426;10.868;2023-09-12T04:38:29;19.83;;;11.80;;
16832;SDS011;8533;48.426;10.868;2023-09-12T04:40:57;19.20;;;12.27;;
16832;SDS011;8533;48.426;10.868;2023-09-12T04:43:27;21.80;;;12.87;;
16832;SDS011;8533;48.426;10.868;2023-09-12T04:45:53;19.67;;;12.50;;
16832;SDS011;8533;48.426;10.868;2023-09-12T04:48:18;20.13;;;11.87;;
16832;SDS011;8533;48.426;10.868;2023-09-12T04:50:43;19.07;;;12.30;;
16832;SDS011;8533;48.426;10.868;2023-09-12T04:53:08;16.60;;;11.87;;
16832;SDS011;8533;48.426;10.868;2023-09-12T04:55:37;21.70;;;13.20;;
16832;SDS011;8533;48.426;10.868;2023-09-12T04:58:04;21.60;;;12.30;;
16832;SDS011;8533;48.426;10.868;2023-09-12T05:00:30;21.40;;;12.47;;
16832;SDS011;8533;48.426;10.868;2023-09-12T05:02:55;21.70;;;13.33;;
16832;SDS011;8533;48.426;10.868;2023-09-12T05:05:20;20.40;;;12.33;;
16832;SDS011;8533;48.426;10.868;2023-09-12T05:07:46;22.33;;;12.47;;
16832;SDS011;8533;48.426;10.868;2023-09-12T05:10:11;19.50;;;12.53;;
16832;SDS011;8533;48.426;10.868;2023-09-12T05:12:37;23.07;;;12.33;;
16832;SDS011;8533;48.426;10.868;2023-09-12T05:15:02;18.20;;;12.37;;
16832;SDS011;8533;48.426;10.868;2023-09-12T05:17:28;23.97;;;12.53;;
16832;SDS011;8533;48.426;10.868;2023-09-12T05:19:53;19.10;;;12.10;;
16832;SDS011;8533;48.426;10.868;2023-09-12T05:22:18;19.67;;;12.47;;
16832;SDS011;8533;48.426;10.868;2023-09-12T05:24:45;22.97;;;11.93;;
16832;SDS011;8533;48.426;10.868;2023-09-12T05:27:11;19.33;;;11.73;;
16832;SDS011;8533;48.426;10.868;2023-09-12T05:29:37;18.13;;;11.00;;
16832;SDS011;8533;48.426;10.868;2023-09-12T05:32:02;20.90;;;11.63;;
16832;SDS011;8533;48.426;10.868;2023-09-12T05:34:28;18.77;;;11.53;;
16832;SDS011;8533;48.426;10.868;2023-09-12T05:36:54;20.53;;;11.97;;
16832;SDS011;8533;48.426;10.868;2023-09-12T05:39:19;26.00;;;11.33;;
16832;SDS011;8533;48.426;10.868;2023-09-12T05:41:44;19.50;;;12.30;;
16832;SDS011;8533;48.426;10.868;2023-09-12T05:44:10;17.80;;;11.50;;
16832;SDS011;8533;48.426;10.868;2023-09-12T05:46:37;16.80;;;11.30;;
16832;SDS011;8533;48.426;10.868;2023-09-12T05:49:03;19.67;;;12.10;;
16832;SDS011;8533;48.426;10.868;2023-09-12T05:51:28;18.43;;;12.50;;
16832;SDS011;8533;48.426;10.868;2023-09-12T05:53:54;18.10;;;11.10;;
16832;SDS011;8533;48.426;10.868;2023-09-12T05:56:19;15.53;;;11.27;;
16832;SDS011;8533;48.426;10.868;2023-09-12T05:58:46;20.63;;;11.80;;
16832;SDS011;8533;48.426;10.868;2023-09-12T06:01:11;16.13;;;10.97;;
16832;SDS011;8533;48.426;10.868;2023-09-12T06:03:37;19.20;;;11.83;;
16832;SDS011;8533;48.426;10.868;2023-09-12T06:06:02;20.30;;;11.80;;
16832;SDS011;8533;48.426;10.868;2023-09-12T06:08:28;18.30;;;11.33;;
16832;SDS011;8533;48.426;10.868;2023-09-12T06:10:53;18.57;;;11.80;;
16832;SDS011;8533;48.426;10.868;2023-09-12T06:13:20;20.07;;;12.37;;
16832;SDS011;8533;48.426;10.868;2023-09-12T06:15:45;20.73;;;12.30;;
16832;SDS011;8533;48.426;10.868;2023-09-12T06:18:11;22.93;;;11.93;;
16832;SDS011;8533;48.426;10.868;2023-09-12T06:20:36;19.43;;;11.40;;
16832;SDS011;8533;48.426;10.868;2023-09-12T06:23:01;19.30;;;11.93;;
16832;SDS011;8533;48.426;10.868;2023-09-12T06:25:28;15.93;;;11.63;;
16832;SDS011;8533;48.426;10.868;2023-09-12T06:27:54;22.77;;;12.50;;
16832;SDS011;8533;48.426;10.868;2023-09-12T06:30:19;21.23;;;11.60;;
16832;SDS011;8533;48.426;10.868;2023-09-12T06:32:44;23.47;;;12.47;;
16832;SDS011;8533;48.426;10.868;2023-09-12T06:35:10;20.97;;;11.53;;
16832;SDS011;8533;48.426;10.868;2023-09-12T06:37:35;18.50;;;12.67;;
16832;SDS011;8533;48.426;10.868;2023-09-12T06:40:02;18.47;;;11.43;;
16832;SDS011;8533;48.426;10.868;2023-09-12T06:42:28;20.47;;;11.93;;
16832;SDS011;8533;48.426;10.868;2023-09-12T06:44:54;18.50;;;11.03;;
16832;SDS011;8533;48.426;10.868;2023-09-12T06:47:19;18.63;;;11.73;;
16832;SDS011;8533;48.426;10.868;2023-09-12T06:49:45;18.57;;;11.70;;
16832;SDS011;8533;48.426;10.868;2023-09-12T06:52:10;15.23;;;10.70;;
16832;SDS011;8533;48.426;10.868;2023-09-12T06:54:35;20.33;;;11.83;;
16832;SDS011;8533;48.426;10.868;2023-09-12T06:57:00;16.30;;;11.67;;
16832;SDS011;8533;48.426;10.868;2023-09-12T06:59:26;18.90;;;11.10;;
16832;SDS011;8533;48.426;10.868;2023-09-12T07:01:51;16.27;;;11.10;;
16832;SDS011;8533;48.426;10.868;2023-09-12T07:04:16;16.40;;;10.30;;
16832;SDS011;8533;48.426;10.868;2023-09-12T07:06:42;16.27;;;10.00;;
16832;SDS011;8533;48.426;10.868;2023-09-12T07:09:07;14.97;;;10.43;;
16832;SDS011;8533;48.426;10.868;2023-09-12T07:11:34;15.27;;;9.90;;
16832;SDS011;8533;48.426;10.868;2023-09-12T07:13:59;14.93;;;10.20;;
16832;SDS011;8533;48.426;10.868;2023-09-12T07:16:25;14.20;;;9.37;;
16832;SDS011;8533;48.426;10.868;2023-09-12T07:18:50;14.83;;;9.53;;
16832;SDS011;8533;48.426;10.868;2023-09-12T07:21:16;13.67;;;9.50;;
16832;SDS011;8533;48.426;10.868;2023-09-12T07:23:41;14.57;;;10.27;;
16832;SDS011;8533;48.426;10.868;2023-09-12T07:26:11;15.87;;;9.73;;
16832;SDS011;8533;48.426;10.868;2023-09-12T07:28:37;16.53;;;9.70;;
16832;SDS011;8533;48.426;10.868;2023-09-12T07:31:03;12.43;;;9.57;;
16832;SDS011;8533;48.426;10.868;2023-09-12T07:33:28;13.03;;;10.00;;
16832;SDS011;8533;48.426;10.868;2023-09-12T07:35:53;13.97;;;9.50;;
16832;SDS011;8533;48.426;10.868;2023-09-12T07:38:19;13.87;;;9.30;;
16832;SDS011;8533;48.426;10.868;2023-09-12T07:40:45;19.17;;;9.97;;
16832;SDS011;8533;48.426;10.868;2023-09-12T07:43:11;16.63;;;9.87;;
16832;SDS011;8533;48.426;10.868;2023-09-12T07:45:36;14.53;;;9.73;;
16832;SDS011;8533;48.426;10.868;2023-09-12T07:48:06;15.10;;;10.37;;
16832;SDS011;8533;48.426;10.868;2023-09-12T07:50:32;13.87;;;9.33;;
16832;SDS011;8533;48.426;10.868;2023-09-12T07:52:57;16.67;;;9.57;;
16832;SDS011;8533;48.426;10.868;2023-09-12T07:55:23;17.60;;;9.20;;
16832;SDS011;8533;48.426;10.868;2023-09-12T07:57:48;23.80;;;9.67;;
16832;SDS011;8533;48.426;10.868;2023-09-12T08:00:13;11.93;;;9.07;;
16832;SDS011;8533;48.426;10.868;2023-09-12T08:02:39;15.10;;;9.37;;
16832;SDS011;8533;48.426;10.868;2023-09-12T08:05:04;12.13;;;9.33;;
16832;SDS011;8533;48.426;10.868;2023-09-12T08:07:30;16.90;;;10.10;;
16832;SDS011;8533;48.426;10.868;2023-09-12T08:09:56;13.93;;;10.43;;
16832;SDS011;8533;48.426;10.868;2023-09-12T08:12:23;14.03;;;9.60;;
16832;SDS011;8533;48.426;10.868;2023-09-12T08:14:50;13.83;;;10.40;;
16832;SDS011;8533;48.426;10.868;2023-09-12T08:17:16;12.33;;;9.40;;
16832;SDS011;8533;48.426;10.868;2023-09-12T08:19:42;14.80;;;8.67;;
16832;SDS011;8533;48.426;10.868;2023-09-12T08:22:08;13.07;;;9.53;;
16832;SDS011;8533;48.426;10.868;2023-09-12T08:24:34;11.63;;;8.87;;
16832;SDS011;8533;48.426;10.868;2023-09-12T08:27:00;11.50;;;8.70;;
16832;SDS011;8533;48.426;10.868;2023-09-12T08:29:27;14.27;;;9.07;;
16832;SDS011;8533;48.426;10.868;2023-09-12T08:31:53;14.30;;;9.07;;
16832;SDS011;8533;48.426;10.868;2023-09-12T08:34:18;11.63;;;8.93;;
16832;SDS011;8533;48.426;10.868;2023-09-12T08:36:43;12.00;;;8.80;;
16832;SDS011;8533;48.426;10.868;2023-09-12T08:39:13;13.50;;;9.50;;
16832;SDS011;8533;48.426;10.868;2023-09-12T08:41:41;11.60;;;8.93;;
16832;SDS011;8533;48.426;10.868;2023-09-12T08:44:07;12.57;;;8.57;;
16832;SDS011;8533;48.426;10.868;2023-09-12T08:46:33;12.13;;;9.27;;
16832;SDS011;8533;48.426;10.868;2023-09-12T08:48:59;13.67;;;8.73;;
16832;SDS011;8533;48.426;10.868;2023-09-12T08:51:25;12.37;;;8.10;;
16832;SDS011;8533;48.426;10.868;2023-09-12T08:53:50;11.40;;;8.80;;
16832;SDS011;8533;48.426;10.868;2023-09-12T08:56:16;11.63;;;8.77;;
16832;SDS011;8533;48.426;10.868;2023-09-12T08:58:43;12.23;;;9.40;;
16832;SDS011;8533;48.426;10.868;2023-09-12T09:01:08;12.63;;;9.07;;
16832;SDS011;8533;48.426;10.868;2023-09-12T09:03:37;12.30;;;8.70;;
16832;SDS011;8533;48.426;10.868;2023-09-12T09:06:03;10.30;;;7.80;;
16832;SDS011;8533;48.426;10.868;2023-09-12T09:08:30;12.23;;;8.87;;
16832;SDS011;8533;48.426;10.868;2023-09-12T09:10:57;10.63;;;8.50;;
16832;SDS011;8533;48.426;10.868;2023-09-12T09:13:23;11.93;;;8.60;;
16832;SDS011;8533;48.426;10.868;2023-09-12T09:15:49;11.40;;;8.97;;
16832;SDS011;8533;48.426;10.868;2023-09-12T09:18:49;12.90;;;8.13;;
16832;SDS011;8533;48.426;10.868;2023-09-12T09:21:23;13.37;;;8.87;;
16832;SDS011;8533;48.426;10.868;2023-09-12T09:23:50;12.03;;;9.20;;
16832;SDS011;8533;48.426;10.868;2023-09-12T09:26:16;10.83;;;8.80;;
16832;SDS011;8533;48.426;10.868;2023-09-12T09:28:42;11.00;;;8.47;;
16832;SDS011;8533;48.426;10.868;2023-09-12T09:31:11;11.23;;;8.23;;
16832;SDS011;8533;48.426;10.868;2023-09-12T09:33:37;9.53;;;7.97;;
16832;SDS011;8533;48.426;10.868;2023-09-12T09:36:04;10.73;;;8.10;;
16832;SDS011;8533;48.426;10.868;2023-09-12T09:38:31;11.87;;;8.60;;
16832;SDS011;8533;48.426;10.868;2023-09-12T09:40:56;11.97;;;8.60;;
16832;SDS011;8533;48.426;10.868;2023-09-12T09:43:22;9.60;;;8.00;;
16832;SDS011;8533;48.426;10.868;2023-09-12T09:45:49;11.23;;;8.37;;
16832;SDS011;8533;48.426;10.868;2023-09-12T09:48:19;12.03;;;8.03;;
16832;SDS011;8533;48.426;10.868;2023-09-12T09:50:44;11.30;;;8.13;;
16832;SDS011;8533;48.426;10.868;2023-09-12T09:53:10;8.90;;;8.00;;
16832;SDS011;8533;48.426;10.868;2023-09-12T09:55:35;9.80;;;7.67;;
16832;SDS011;8533;48.426;10.868;2023-09-12T09:58:01;11.27;;;8.03;;
16832;SDS011;8533;48.426;10.868;2023-09-12T10:00:28;11.87;;;8.30;;
16832;SDS011;8533;48.426;10.868;2023-09-12T10:02:54;11.57;;;7.97;;
16832;SDS011;8533;48.426;10.868;2023-09-12T10:05:21;9.13;;;7.40;;
16832;SDS011;8533;48.426;10.868;2023-09-12T10:07:48;11.30;;;7.80;;
16832;SDS011;8533;48.426;10.868;2023-09-12T10:10:15;11.50;;;8.40;;
16832;SDS011;8533;48.426;10.868;2023-09-12T10:12:43;11.53;;;8.50;;
16832;SDS011;8533;48.426;10.868;2023-09-12T10:15:13;9.03;;;7.33;;
16832;SDS011;8533;48.426;10.868;2023-09-12T10:17:42;9.50;;;7.88;;
16832;SDS011;8533;48.426;10.868;2023-09-12T10:20:13;9.17;;;7.57;;
16832;SDS011;8533;48.426;10.868;2023-09-12T10:22:43;9.53;;;7.53;;
16832;SDS011;8533;48.426;10.868;2023-09-12T10:25:33;12.50;;;8.10;;
16832;SDS011;8533;48.426;10.868;2023-09-12T10:28:01;9.10;;;8.13;;
16832;SDS011;8533;48.426;10.868;2023-09-12T10:30:28;11.88;;;7.45;;
16832;SDS011;8533;48.426;10.868;2023-09-12T10:32:55;8.70;;;7.63;;
16832;SDS011;8533;48.426;10.868;2023-09-12T10:35:22;8.32;;;7.35;;
16832;SDS011;8533;48.426;10.868;2023-09-12T10:37:47;9.25;;;6.88;;
16832;SDS011;8533;48.426;10.868;2023-09-12T10:40:15;10.10;;;7.47;;
16832;SDS011;8533;48.426;10.868;2023-09-12T10:42:42;8.83;;;6.83;;
16832;SDS011;8533;48.426;10.868;2023-09-12T10:45:08;9.90;;;6.60;;
16832;SDS011;8533;48.426;10.868;2023-09-12T10:47:35;7.70;;;6.90;;
16832;SDS011;8533;48.426;10.868;2023-09-12T10:50:01;11.47;;;6.90;;
16832;SDS011;8533;48.426;10.868;2023-09-12T10:52:27;8.80;;;6.77;;
16832;SDS011;8533;48.426;10.868;2023-09-12T10:54:53;7.97;;;7.17;;
16832;SDS011;8533;48.426;10.868;2023-09-12T10:57:19;8.10;;;6.83;;
16832;SDS011;8533;48.426;10.868;2023-09-12T11:04:54;8.57;;;7.10;;
16832;SDS011;8533;48.426;10.868;2023-09-12T11:07:30;8.33;;;7.03;;
16832;SDS011;8533;48.426;10.868;2023-09-12T11:12:40;7.90;;;6.47;;
16832;SDS011;8533;48.426;10.868;2023-09-12T11:15:06;8.43;;;7.20;;
16832;SDS011;8533;48.426;10.868;2023-09-12T11:17:36;9.43;;;6.50;;
16832;SDS011;8533;48.426;10.868;2023-09-12T11:20:06;10.23;;;7.20;;
16832;SDS011;8533;48.426;10.868;2023-09-12T11:22:36;8.47;;;6.67;;
16832;SDS011;8533;48.426;10.868;2023-09-12T11:25:04;14.50;;;7.93;;
16832;SDS011;8533;48.426;10.868;2023-09-12T11:30:18;9.77;;;7.27;;
16832;SDS011;8533;48.426;10.868;2023-09-12T11:32:48;7.83;;;7.03;;
16832;SDS011;8533;48.426;10.868;2023-09-12T11:35:15;11.37;;;6.63;;
16832;SDS011;8533;48.426;10.868;2023-09-12T11:37:48;7.23;;;5.77;;
16832;SDS011;8533;48.426;10.868;2023-09-12T11:40:16;6.27;;;5.50;;
16832;SDS011;8533;48.426;10.868;2023-09-12T11:42:43;11.33;;;5.70;;
16832;SDS011;8533;48.426;10.868;2023-09-12T11:45:09;9.37;;;5.43;;
16832;SDS011;8533;48.426;10.868;2023-09-12T11:47:40;8.83;;;6.10;;
16832;SDS011;8533;48.426;10.868;2023-09-12T11:50:09;7.73;;;6.20;;
16832;SDS011;8533;48.426;10.868;2023-09-12T11:53:07;8.27;;;5.90;;
16832;SDS011;8533;48.426;10.868;2023-09-12T11:55:42;8.00;;;6.78;;
16832;SDS011;8533;48.426;10.868;2023-09-12T11:58:10;8.67;;;7.60;;
16832;SDS011;8533;48.426;10.868;2023-09-12T12:00:36;11.93;;;7.30;;
16832;SDS011;8533;48.426;10.868;2023-09-12T12:03:02;9.53;;;6.97;;
16832;SDS011;8533;48.426;10.868;2023-09-12T12:05:29;8.10;;;6.63;;
16832;SDS011;8533;48.426;10.868;2023-09-12T12:07:55;11.00;;;6.00;;
16832;SDS011;8533;48.426;10.868;2023-09-12T12:10:20;6.57;;;5.90;;
16832;SDS011;8533;48.426;10.868;2023-09-12T12:12:48;8.40;;;6.07;;
16832;SDS011;8533;48.426;10.868;2023-09-12T12:15:17;10.18;;;5.47;;
16832;SDS011;8533;48.426;10.868;2023-09-12T12:17:43;8.38;;;5.55;;
16832;SDS011;8533;48.426;10.868;2023-09-12T12:20:09;9.05;;;5.65;;
16832;SDS011;8533;48.426;10.868;2023-09-12T12:22:39;7.47;;;6.40;;
16832;SDS011;8533;48.426;10.868;2023-09-12T12:25:09;9.57;;;6.15;;
16832;SDS011;8533;48.426;10.868;2023-09-12T12:27:38;6.95;;;5.72;;
16832;SDS011;8533;48.426;10.868;2023-09-12T12:30:08;9.45;;;6.45;;
16832;SDS011;8533;48.426;10.868;2023-09-12T12:32:36;9.57;;;6.23;;
16832;SDS011;8533;48.426;10.868;2023-09-12T12:35:06;7.10;;;6.17;;
16832;SDS011;8533;48.426;10.868;2023-09-12T12:37:32;7.60;;;5.80;;
16832;SDS011;8533;48.426;10.868;2023-09-12T12:39:58;10.80;;;6.00;;
16832;SDS011;8533;48.426;10.868;2023-09-12T12:42:25;10.73;;;6.35;;
16832;SDS011;8533;48.426;10.868;2023-09-12T12:44:58;11.07;;;5.67;;
16832;SDS011;8533;48.426;10.868;2023-09-12T12:47:23;6.72;;;6.03;;
16832;SDS011;8533;48.426;10.868;2023-09-12T12:49:50;5.90;;;5.30;;
16832;SDS011;8533;48.426;10.868;2023-09-12T12:52:21;6.80;;;5.75;;
16832;SDS011;8533;48.426;10.868;2023-09-12T12:54:47;6.53;;;5.75;;
16832;SDS011;8533;48.426;10.868;2023-09-12T12:57:12;9.80;;;5.53;;
16832;SDS011;8533;48.426;10.868;2023-09-12T12:59:44;8.52;;;5.95;;
16832;SDS011;8533;48.426;10.868;2023-09-12T13:02:10;7.60;;;5.53;;
16832;SDS011;8533;48.426;10.868;2023-09-12T13:04:36;8.32;;;5.93;;
16832;SDS011;8533;48.426;10.868;2023-09-12T13:07:02;10.13;;;6.65;;
16832;SDS011;8533;48.426;10.868;2023-09-12T13:09:28;7.13;;;5.35;;
16832;SDS011;8533;48.426;10.868;2023-09-12T13:11:53;6.53;;;5.60;;
16832;SDS011;8533;48.426;10.868;2023-09-12T13:14:18;9.55;;;5.45;;
16832;SDS011;8533;48.426;10.868;2023-09-12T13:16:44;6.85;;;5.80;;
16832;SDS011;8533;48.426;10.868;2023-09-12T13:19:10;8.00;;;5.57;;
16832;SDS011;8533;48.426;10.868;2023-09-12T13:21:37;8.77;;;6.30;;
16832;SDS011;8533;48.426;10.868;2023-09-12T13:24:03;7.72;;;5.47;;
16832;SDS011;8533;48.426;10.868;2023-09-12T13:26:28;8.02;;;5.65;;
16832;SDS011;8533;48.426;10.868;2023-09-12T13:28:54;11.05;;;5.97;;
16832;SDS011;8533;48.426;10.868;2023-09-12T13:31:19;6.35;;;5.75;;
16832;SDS011;8533;48.426;10.868;2023-09-12T13:33:44;9.38;;;5.93;;
16832;SDS011;8533;48.426;10.868;2023-09-12T13:36:10;7.00;;;5.65;;
16832;SDS011;8533;48.426;10.868;2023-09-12T13:38:35;9.75;;;5.75;;
16832;SDS011;8533;48.426;10.868;2023-09-12T13:41:00;8.00;;;5.80;;
16832;SDS011;8533;48.426;10.868;2023-09-12T13:43:25;10.73;;;6.25;;
16832;SDS011;8533;48.426;10.868;2023-09-12T13:45:52;10.00;;;6.07;;
16832;SDS011;8533;48.426;10.868;2023-09-12T13:48:17;7.83;;;5.93;;
16832;SDS011;8533;48.426;10.868;2023-09-12T13:50:43;9.90;;;5.80;;
16832;SDS011;8533;48.426;10.868;2023-09-12T13:53:08;6.90;;;5.43;;
16832;SDS011;8533;48.426;10.868;2023-09-12T13:55:34;8.53;;;6.10;;
16832;SDS011;8533;48.426;10.868;2023-09-12T13:58:03;7.40;;;6.37;;
16832;SDS011;8533;48.426;10.868;2023-09-12T14:00:29;7.57;;;6.10;;
16832;SDS011;8533;48.426;10.868;2023-09-12T14:02:55;7.77;;;6.23;;
16832;SDS011;8533;48.426;10.868;2023-09-12T14:05:21;10.10;;;6.67;;
16832;SDS011;8533;48.426;10.868;2023-09-12T14:07:46;9.50;;;6.50;;
16832;SDS011;8533;48.426;10.868;2023-09-12T14:10:11;9.10;;;6.23;;
16832;SDS011;8533;48.426;10.868;2023-09-12T14:12:37;10.33;;;6.63;;
16832;SDS011;8533;48.426;10.868;2023-09-12T14:15:03;7.77;;;5.90;;
16832;SDS011;8533;48.426;10.868;2023-09-12T14:17:29;8.70;;;6.53;;
16832;SDS011;8533;48.426;10.868;2023-09-12T14:19:55;7.40;;;5.83;;
16832;SDS011;8533;48.426;10.868;2023-09-12T14:22:20;11.00;;;6.63;;
16832;SDS011;8533;48.426;10.868;2023-09-12T14:24:46;10.73;;;6.20;;
16832;SDS011;8533;48.426;10.868;2023-09-12T14:27:11;8.70;;;6.13;;
16832;SDS011;8533;48.426;10.868;2023-09-12T14:29:37;11.20;;;6.60;;
16832;SDS011;8533;48.426;10.868;2023-09-12T14:32:02;9.03;;;6.27;;
16832;SDS011;8533;48.426;10.868;2023-09-12T14:34:28;9.53;;;7.27;;
16832;SDS011;8533;48.426;10.868;2023-09-12T14:36:54;10.63;;;6.67;;
16832;SDS011;8533;48.426;10.868;2023-09-12T14:39:21;10.97;;;6.40;;
16832;SDS011;8533;48.426;10.868;2023-09-12T14:41:46;10.23;;;6.60;;